Time;durP1;ratioP1;P1;durP2;ratioP2;P2;SDS_P1;SDS_P2;PMS_P1;PMS_P2;Temp;Humidity;BMP_temperature;BMP_pressure;BME280_temperature;BME280_humidity;BME280_pressure;Samples;Min_cycle;Max_cycle;Signal;HPM_P1;HPM_P2
2022/10/18 00:00:43;;;;;;;4.20;3.00;;;;;;;5.64;81.87;96181.94;5087486;28;20264;-73
2022/10/18 00:03:10;;;;;;;3.50;2.65;;;;;;;5.57;81.72;96189.41;5087366;28;20233;-73
2022/10/18 00:05:37;;;;;;;6.07;2.90;;;;;;;5.56;82.03;96185.09;5086353;28;20771;-73
2022/10/18 00:08:03;;;;;;;10.32;7.05;;;;;;;5.55;82.10;96182.69;5091240;28;20633;-73
2022/10/18 00:10:31;;;;;;;11.63;6.97;;;;;;;5.49;82.16;96173.75;5082828;28;20199;-73
2022/10/18 00:12:57;;;;;;;10.05;5.78;;;;;;;5.43;82.30;96172.09;5088921;28;20202;-73
2022/10/18 00:15:24;;;;;;;5.45;3.00;;;;;;;5.46;83.17;96176.97;5088080;28;20791;-73
2022/10/18 00:17:52;;;;;;;4.45;2.85;;;;;;;5.48;82.37;96174.00;5089314;28;20201;-72
2022/10/18 00:20:19;;;;;;;6.22;2.88;;;;;;;5.38;82.79;96164.00;5086583;28;20734;-73
2022/10/18 00:22:46;;;;;;;5.18;3.25;;;;;;;5.39;82.96;96165.63;5084593;28;20198;-73
2022/10/18 00:25:12;;;;;;;6.57;3.08;;;;;;;5.34;82.77;96157.50;5085279;28;20210;-73
2022/10/18 00:27:39;;;;;;;7.03;3.47;;;;;;;5.31;83.01;96158.84;5085947;28;20202;-73
2022/10/18 00:30:07;;;;;;;4.45;2.58;;;;;;;5.30;83.73;96154.53;5087652;28;20626;-73
2022/10/18 00:32:36;;;;;;;12.00;7.07;;;;;;;5.29;83.57;96144.06;5108014;28;20254;-73
2022/10/18 00:35:05;;;;;;;5.32;3.13;;;;;;;5.25;83.64;96151.81;5111392;28;20233;-73
2022/10/18 00:37:32;;;;;;;6.13;3.00;;;;;;;5.20;83.90;96140.19;5094103;28;20231;-73
2022/10/18 00:39:59;;;;;;;7.32;2.97;;;;;;;5.18;83.94;96142.34;5085751;28;20202;-72
2022/10/18 00:42:29;;;;;;;3.63;2.60;;;;;;;5.18;83.75;96139.66;5092266;28;20210;-73
2022/10/18 00:45:19;;;;;;;3.20;2.55;;;;;;;5.18;83.87;96140.47;5099517;28;20226;-73
2022/10/18 00:47:50;;;;;;;4.07;2.38;;;;;;;5.20;83.93;96141.00;5079168;28;20290;-73
2022/10/18 00:50:20;;;;;;;11.10;6.70;;;;;;;5.15;83.79;96135.59;5093263;28;20231;-73
2022/10/18 00:52:50;;;;;;;4.63;2.17;;;;;;;5.16;84.16;96139.91;5077725;28;20665;-73
2022/10/18 00:55:17;;;;;;;10.15;6.22;;;;;;;5.18;83.72;96131.59;5087943;28;20227;-73
2022/10/18 00:57:45;;;;;;;10.82;6.22;;;;;;;5.17;84.27;96130.78;5082953;28;20202;-72
2022/10/18 01:00:13;;;;;;;10.65;6.07;;;;;;;5.17;84.21;96129.97;5103568;28;20256;-73
2022/10/18 01:02:42;;;;;;;10.55;6.45;;;;;;;5.14;84.35;96130.50;5082993;28;20924;-73
2022/10/18 01:05:11;;;;;;;10.20;6.30;;;;;;;5.00;84.09;96128.22;5084446;28;20288;-73
2022/10/18 01:07:55;;;;;;;11.40;6.60;;;;;;;4.98;83.97;96121.50;5089751;28;20665;-73
2022/10/18 01:10:30;;;;;;;10.02;6.07;;;;;;;5.05;84.18;96123.97;5074008;28;20714;-72
2022/10/18 01:13:10;;;;;;;9.43;5.93;;;;;;;4.95;83.95;96116.63;5086898;28;20223;-72
2022/10/18 01:15:47;;;;;;;8.95;5.55;;;;;;;4.93;84.15;96124.13;5081526;28;20272;-72
2022/10/18 01:18:21;;;;;;;11.15;6.03;;;;;;;4.87;84.22;96120.59;5085192;28;20222;-73
2022/10/18 01:21:13;;;;;;;9.77;6.10;;;;;;;5.03;83.50;96120.72;5082817;28;20202;-74
2022/10/18 01:24:00;;;;;;;9.73;5.53;;;;;;;4.89;84.32;96115.78;5081874;28;20255;-73
2022/10/18 01:26:39;;;;;;;8.02;3.65;;;;;;;4.88;84.65;96118.72;5083635;28;20198;-72
2022/10/18 01:29:18;;;;;;;9.90;2.33;;;;;;;4.86;85.00;96112.78;5089228;28;20248;-72
2022/10/18 01:31:50;;;;;;;6.20;3.35;;;;;;;4.84;84.64;96107.66;5081880;28;20232;-72
2022/10/18 01:34:18;;;;;;;11.25;5.90;;;;;;;4.78;84.70;96110.59;5089795;28;20283;-72
2022/10/18 01:36:49;;;;;;;9.35;5.75;;;;;;;4.71;84.46;96116.13;5091132;28;20230;-73
2022/10/18 01:39:21;;;;;;;9.73;6.13;;;;;;;4.75;84.32;96117.25;5085205;28;20207;-72
2022/10/18 01:41:50;;;;;;;8.25;5.30;;;;;;;4.69;84.16;96112.91;5082086;28;20255;-72
2022/10/18 01:44:21;;;;;;;10.60;5.90;;;;;;;4.61;84.59;96110.69;5086960;28;20226;-74
2022/10/18 01:46:51;;;;;;;10.82;5.78;;;;;;;4.65;84.83;96112.59;5090394;28;20198;-72
2022/10/18 01:49:17;;;;;;;10.70;5.80;;;;;;;4.66;84.95;96108.03;5082281;28;20283;-72
2022/10/18 01:51:44;;;;;;;7.18;4.78;;;;;;;4.63;84.91;96113.94;5086091;28;20323;-73
2022/10/18 01:54:17;;;;;;;8.10;5.13;;;;;;;4.63;85.29;96108.56;5085584;28;20673;-74
2022/10/18 01:56:54;;;;;;;9.77;5.72;;;;;;;4.65;85.52;96101.03;5086027;28;20214;-74
2022/10/18 01:59:33;;;;;;;10.88;5.78;;;;;;;4.60;85.37;96103.69;5088742;28;20248;-74
2022/10/18 02:02:09;;;;;;;4.60;2.30;;;;;;;4.57;85.41;96106.88;5082651;28;20194;-74
2022/10/18 02:04:44;;;;;;;10.10;5.72;;;;;;;4.49;85.87;96096.59;5090445;28;20276;-74
2022/10/18 02:07:21;;;;;;;15.35;5.97;;;;;;;4.55;85.84;96104.44;5084564;28;20258;-74
2022/10/18 02:09:55;;;;;;;10.15;5.88;;;;;;;4.53;85.66;96092.34;5096088;28;20198;-74
2022/10/18 02:12:23;;;;;;;10.10;5.85;;;;;;;4.59;85.89;96096.69;5089015;28;20189;-74
2022/10/18 02:14:51;;;;;;;4.93;2.35;;;;;;;4.63;85.46;96089.78;5089112;28;20671;-74
2022/10/18 02:17:20;;;;;;;4.90;2.53;;;;;;;4.40;85.34;96082.81;5093724;28;20226;-74
2022/10/18 02:19:51;;;;;;;4.22;2.40;;;;;;;4.54;85.34;96088.59;5094189;28;20202;-74
2022/10/18 02:22:19;;;;;;;11.68;5.63;;;;;;;4.57;85.49;96088.91;5093157;28;20202;-74
2022/10/18 02:24:50;;;;;;;3.67;2.08;;;;;;;4.49;85.98;96086.69;5084586;28;20658;-74
2022/10/18 02:27:17;;;;;;;3.83;1.85;;;;;;;4.55;85.12;96082.16;5089010;28;20203;-74
2022/10/18 02:29:45;;;;;;;11.00;2.55;;;;;;;4.41;85.07;96089.00;5082437;28;20292;-74
2022/10/18 02:32:18;;;;;;;9.65;5.43;;;;;;;4.31;85.54;96084.34;5087546;28;20210;-74
2022/10/18 02:34:53;;;;;;;6.72;2.90;;;;;;;4.26;86.12;96077.03;5088454;28;20251;-74
2022/10/18 02:37:20;;;;;;;7.82;5.30;;;;;;;4.39;86.03;96085.75;5114249;28;20217;-74
2022/10/18 02:39:50;;;;;;;10.38;5.72;;;;;;;4.35;86.16;96090.03;5114030;28;20587;-74
2022/10/18 02:42:17;;;;;;;2.88;2.17;;;;;;;4.19;85.60;96097.91;5095107;28;20203;-74
2022/10/18 02:44:44;;;;;;;6.00;2.50;;;;;;;4.24;86.38;96091.75;5087233;28;20275;-74
2022/10/18 02:47:12;;;;;;;3.92;2.53;;;;;;;4.34;85.84;96094.56;5090635;28;20202;-74
2022/10/18 02:49:38;;;;;;;4.28;2.33;;;;;;;4.18;85.22;96101.63;5085999;28;20589;-73
2022/10/18 02:52:06;;;;;;;4.95;2.78;;;;;;;4.19;83.51;96100.56;5088498;28;20253;-73
2022/10/18 02:54:33;;;;;;;5.53;3.05;;;;;;;4.01;85.74;96106.25;5084017;28;20199;-73
2022/10/18 02:57:00;;;;;;;2.08;1.77;;;;;;;4.10;86.53;96104.75;5089703;28;20287;-74
2022/10/18 02:59:26;;;;;;;3.20;2.58;;;;;;;4.08;86.72;96092.66;5091780;28;20272;-73
2022/10/18 03:01:53;;;;;;;8.93;5.78;;;;;;;4.26;86.67;96097.69;5084248;28;20611;-74
2022/10/18 03:04:20;;;;;;;8.95;5.63;;;;;;;4.13;87.03;96098.88;5089465;28;20222;-74
2022/10/18 03:06:47;;;;;;;9.05;5.68;;;;;;;4.11;86.49;96098.31;5087347;28;20199;-74
2022/10/18 03:09:15;;;;;;;11.18;5.82;;;;;;;4.07;86.95;96101.75;5089647;28;20722;-74
2022/10/18 03:11:42;;;;;;;9.10;5.55;;;;;;;4.04;87.27;96100.38;5091196;28;20243;-74
2022/10/18 03:14:08;;;;;;;10.75;6.13;;;;;;;3.97;86.62;96098.94;5092653;28;20350;-74
2022/10/18 03:16:35;;;;;;;9.90;6.05;;;;;;;3.90;86.97;96099.97;5083700;28;20264;-74
2022/10/18 03:19:02;;;;;;;10.27;5.93;;;;;;;3.90;86.72;96093.78;5098980;28;20717;-74
2022/10/18 03:21:28;;;;;;;10.02;5.95;;;;;;;3.80;87.40;96088.31;5092013;28;20260;-74
2022/10/18 03:23:57;;;;;;;10.07;6.47;;;;;;;3.67;87.69;96094.03;5100990;28;20789;-74
2022/10/18 03:26:25;;;;;;;11.00;6.15;;;;;;;3.75;88.45;96085.53;5090656;28;20201;-73
2022/10/18 03:28:52;;;;;;;9.38;5.93;;;;;;;3.86;88.65;96089.97;5084418;28;20334;-73
2022/10/18 03:31:19;;;;;;;9.35;5.90;;;;;;;3.96;88.48;96082.06;5095215;28;20206;-73
2022/10/18 03:33:46;;;;;;;11.85;6.95;;;;;;;4.02;88.26;96089.09;5099441;28;20660;-73
2022/10/18 03:36:12;;;;;;;10.65;6.15;;;;;;;3.98;87.87;96085.28;5074448;28;20234;-73
2022/10/18 03:38:39;;;;;;;13.82;6.53;;;;;;;3.97;88.02;96094.38;5090410;28;20251;-73
2022/10/18 03:41:06;;;;;;;13.55;6.88;;;;;;;3.97;87.69;96091.72;5086647;28;20252;-73
2022/10/18 03:43:34;;;;;;;10.80;6.50;;;;;;;3.95;87.54;96099.22;5091782;28;20222;-73
2022/10/18 03:46:01;;;;;;;26.85;12.82;;;;;;;3.86;87.17;96098.81;5084891;28;20202;-73
2022/10/18 03:48:28;;;;;;;19.35;10.40;;;;;;;3.90;87.05;96099.16;5091546;28;20206;-73
2022/10/18 03:50:55;;;;;;;15.20;7.80;;;;;;;3.88;86.85;96107.44;5092728;28;20201;-73
2022/10/18 03:53:21;;;;;;;15.65;8.68;;;;;;;3.72;87.61;96107.47;5112230;28;20210;-73
2022/10/18 03:55:51;;;;;;;11.63;6.78;;;;;;;3.80;87.65;96104.38;5112189;28;20202;-73
2022/10/18 03:58:18;;;;;;;11.95;7.18;;;;;;;3.80;87.67;96107.06;5097437;28;20210;-73
2022/10/18 04:00:48;;;;;;;5.55;2.72;;;;;;;3.73;88.44;96112.59;5087465;28;20206;-73
2022/10/18 04:03:15;;;;;;;14.30;7.30;;;;;;;3.74;87.98;96110.72;5091224;28;20296;-73
2022/10/18 04:05:42;;;;;;;16.50;7.90;;;;;;;3.70;87.98;96104.22;5086042;28;20669;-71
2022/10/18 04:08:08;;;;;;;14.43;8.35;;;;;;;3.69;88.49;96110.66;5088858;28;20248;-73
2022/10/18 04:10:37;;;;;;;3.95;2.60;;;;;;;3.68;88.06;96117.09;5083461;28;20261;-71
2022/10/18 04:13:04;;;;;;;4.80;2.90;;;;;;;3.74;87.51;96111.53;5089394;28;20253;-74
2022/10/18 04:15:30;;;;;;;15.27;6.80;;;;;;;3.61;87.97;96105.72;5079650;28;20249;-77
2022/10/18 04:17:59;;;;;;;12.73;7.88;;;;;;;3.61;88.62;96111.09;5084228;28;20276;-74
2022/10/18 04:20:26;;;;;;;13.95;7.18;;;;;;;3.45;89.18;96113.53;5087430;28;20267;-74
2022/10/18 04:22:53;;;;;;;10.52;7.07;;;;;;;3.43;89.64;96099.56;5086788;28;20653;-74
2022/10/18 04:25:20;;;;;;;16.42;7.63;;;;;;;3.37;89.38;96105.94;5085425;28;20203;-74
2022/10/18 04:27:48;;;;;;;15.55;8.30;;;;;;;3.47;90.60;96098.03;5085387;28;20248;-74
2022/10/18 04:30:15;;;;;;;11.15;7.63;;;;;;;3.50;90.15;96099.41;5086864;28;20645;-75
2022/10/18 04:32:41;;;;;;;17.27;8.25;;;;;;;3.51;89.77;96107.22;5083398;28;20660;-76
2022/10/18 04:35:10;;;;;;;16.85;8.38;;;;;;;3.54;89.94;96104.03;5084286;28;20235;-75
2022/10/18 04:37:37;;;;;;;15.05;7.75;;;;;;;3.58;90.13;96094.44;5090752;28;20230;-75
2022/10/18 04:40:04;;;;;;;13.63;7.82;;;;;;;3.58;89.79;96090.94;5085541;28;20285;-75
2022/10/18 04:42:31;;;;;;;4.60;2.42;;;;;;;3.69;89.51;96098.06;5090127;28;20640;-75
2022/10/18 04:44:58;;;;;;;8.55;2.67;;;;;;;3.78;89.04;96098.47;5084464;28;20201;-75
2022/10/18 04:47:24;;;;;;;2.90;2.08;;;;;;;3.74;88.42;96100.81;5094659;28;20662;-75
2022/10/18 04:49:51;;;;;;;7.10;3.28;;;;;;;3.55;88.56;96102.19;5099298;28;20426;-75
2022/10/18 04:52:19;;;;;;;7.32;3.95;;;;;;;3.41;88.72;96101.72;5082417;28;20203;-75
2022/10/18 04:54:46;;;;;;;19.63;3.67;;;;;;;3.43;90.04;96091.53;5082895;28;20271;-75
2022/10/18 04:57:12;;;;;;;14.18;4.13;;;;;;;3.51;89.86;96091.13;5100776;28;20249;-73
2022/10/18 04:59:39;;;;;;;5.15;3.20;;;;;;;3.70;90.06;96088.16;5088915;28;20236;-74
2022/10/18 05:02:06;;;;;;;3.33;2.85;;;;;;;4.25;89.12;96083.47;5085048;28;20503;-74
2022/10/18 05:04:33;;;;;;;4.82;2.80;;;;;;;5.26;87.78;96074.72;5087762;28;20191;-74
2022/10/18 05:06:59;;;;;;;3.97;2.58;;;;;;;6.53;84.56;96064.56;5071049;28;20251;-75
2022/10/18 05:09:27;;;;;;;7.05;4.15;;;;;;;7.61;79.44;96056.19;5086392;28;20255;-75
2022/10/18 05:11:54;;;;;;;6.25;3.53;;;;;;;8.62;74.19;96061.16;5078364;28;20217;-74
2022/10/18 05:14:21;;;;;;;7.40;3.70;;;;;;;9.66;70.15;96056.25;5096373;28;20606;-74
2022/10/18 05:16:47;;;;;;;5.25;2.97;;;;;;;10.32;65.27;96050.09;5089410;28;20294;-73
2022/10/18 05:19:14;;;;;;;7.50;4.05;;;;;;;10.77;63.70;96042.47;5096017;28;20228;-73
2022/10/18 05:21:41;;;;;;;4.22;3.00;;;;;;;10.79;62.22;96042.97;5089908;28;20221;-74
2022/10/18 05:24:10;;;;;;;5.13;2.88;;;;;;;10.22;63.67;96045.63;5095609;28;20213;-74
2022/10/18 05:26:38;;;;;;;5.07;3.08;;;;;;;10.86;62.26;96036.06;5084054;28;20237;-74
2022/10/18 05:29:04;;;;;;;7.50;3.20;;;;;;;12.04;59.39;96047.31;5104189;28;20570;-74
2022/10/18 05:31:31;;;;;;;6.13;3.53;;;;;;;12.76;56.56;96041.19;5083975;28;20202;-73
2022/10/18 05:33:58;;;;;;;13.85;4.10;;;;;;;13.39;56.62;96035.63;5087945;28;20243;-73
2022/10/18 05:36:24;;;;;;;6.53;3.30;;;;;;;13.82;54.42;96045.97;5078767;28;20227;-74
2022/10/18 05:38:52;;;;;;;17.27;6.35;;;;;;;14.02;52.89;96045.41;5086498;28;20845;-73
2022/10/18 05:41:19;;;;;;;15.57;6.43;;;;;;;13.99;54.09;96043.31;5086138;28;20202;-73
2022/10/18 05:43:47;;;;;;;10.82;4.70;;;;;;;13.53;54.71;96049.97;5085332;28;20729;-73
2022/10/18 05:46:14;;;;;;;11.93;4.43;;;;;;;13.88;52.03;96039.28;5085355;28;20592;-73
2022/10/18 05:48:40;;;;;;;6.05;4.20;;;;;;;14.45;52.97;96039.34;5084167;28;20282;-74
2022/10/18 05:51:07;;;;;;;6.15;3.75;;;;;;;14.47;51.44;96050.75;5093965;28;20420;-74
2022/10/18 05:53:34;;;;;;;4.88;3.15;;;;;;;14.16;53.49;96051.56;5093235;28;20202;-74
2022/10/18 05:56:01;;;;;;;15.77;4.38;;;;;;;14.48;52.70;96042.25;5081353;28;20256;-75
2022/10/18 05:58:28;;;;;;;5.65;3.78;;;;;;;15.24;49.85;96036.34;5086176;28;20265;-74
2022/10/18 06:00:58;;;;;;;5.72;3.78;;;;;;;15.55;50.07;96045.19;5110114;28;20210;-74
2022/10/18 06:03:26;;;;;;;7.25;4.00;;;;;;;15.08;49.41;96043.41;5094065;28;20317;-74
2022/10/18 06:05:53;;;;;;;5.07;2.70;;;;;;;14.24;49.86;96053.50;5094688;28;20201;-74
2022/10/18 06:08:19;;;;;;;6.45;3.38;;;;;;;14.87;49.58;96044.06;5091724;28;20202;-74
2022/10/18 06:10:46;;;;;;;9.02;4.68;;;;;;;15.60;48.36;96034.06;5084679;28;20198;-74
2022/10/18 06:13:13;;;;;;;5.35;3.95;;;;;;;15.70;49.06;96040.34;5087411;28;20202;-74
2022/10/18 06:15:39;;;;;;;7.47;4.03;;;;;;;15.63;48.11;96041.63;5080842;28;20259;-74
2022/10/18 06:18:07;;;;;;;14.25;4.47;;;;;;;15.68;48.16;96031.66;5089791;28;20238;-74
2022/10/18 06:20:34;;;;;;;6.30;4.55;;;;;;;15.26;49.00;96040.38;5088682;28;20244;-74
2022/10/18 06:23:01;;;;;;;10.77;5.32;;;;;;;15.35;48.84;96043.06;5095702;28;20191;-75
2022/10/18 06:25:27;;;;;;;9.18;5.00;;;;;;;14.80;49.82;96049.19;5087579;28;20241;-74
2022/10/18 06:27:54;;;;;;;12.90;5.30;;;;;;;15.49;48.60;96046.44;5084814;28;20261;-74
2022/10/18 06:30:21;;;;;;;11.73;6.00;;;;;;;14.64;49.42;96045.28;5086704;28;20210;-73
2022/10/18 06:32:48;;;;;;;15.27;6.47;;;;;;;13.00;53.29;96038.19;5089697;28;20661;-74
2022/10/18 06:35:16;;;;;;;5.45;4.13;;;;;;;12.44;55.60;96050.31;5097747;28;20479;-74
2022/10/18 06:37:43;;;;;;;3.85;2.78;;;;;;;12.33;56.52;96043.50;5088586;28;20234;-74
2022/10/18 06:40:11;;;;;;;14.38;7.43;;;;;;;12.23;57.15;96049.13;5089591;28;20233;-74
2022/10/18 06:42:37;;;;;;;10.98;5.00;;;;;;;11.82;57.98;96047.22;5078282;28;20231;-75
2022/10/18 06:45:05;;;;;;;8.25;5.03;;;;;;;11.25;60.48;96041.13;5090019;28;20619;-74
2022/10/18 06:47:31;;;;;;;11.35;5.28;;;;;;;11.40;59.81;96049.03;5085877;28;20343;-74
2022/10/18 06:49:58;;;;;;;11.60;5.60;;;;;;;11.22;61.00;96049.06;5105978;28;20721;-74
2022/10/18 06:52:26;;;;;;;9.68;3.75;;;;;;;10.92;61.56;96042.22;5088742;28;20610;-74
2022/10/18 06:54:53;;;;;;;7.78;4.22;;;;;;;11.10;61.29;96046.81;5092646;28;20202;-74
2022/10/18 06:57:20;;;;;;;14.10;4.28;;;;;;;10.95;61.97;96050.56;5086334;28;20322;-74
2022/10/18 06:59:47;;;;;;;9.32;3.92;;;;;;;11.10;61.42;96038.66;5092125;28;20198;-74
2022/10/18 07:02:16;;;;;;;12.50;4.75;;;;;;;10.84;62.21;96048.31;5075187;28;20680;-75
2022/10/18 07:04:43;;;;;;;10.70;5.35;;;;;;;10.26;63.62;96048.56;5090365;28;20197;-74
2022/10/18 07:07:09;;;;;;;8.10;5.53;;;;;;;9.91;64.89;96050.56;5087614;28;20238;-74
2022/10/18 07:09:37;;;;;;;8.73;5.38;;;;;;;9.85;65.39;96057.13;5090423;28;20263;-74
2022/10/18 07:12:04;;;;;;;7.60;5.22;;;;;;;9.72;66.04;96052.41;5105910;28;20198;-74
2022/10/18 07:14:31;;;;;;;16.25;5.78;;;;;;;9.42;66.75;96058.13;5086740;28;20249;-73
2022/10/18 07:16:59;;;;;;;8.60;4.60;;;;;;;9.46;66.46;96064.56;5094880;28;20708;-74
2022/10/18 07:19:26;;;;;;;9.30;4.75;;;;;;;9.51;65.86;96059.13;5096744;28;20210;-73
2022/10/18 07:21:52;;;;;;;5.38;3.60;;;;;;;9.45;65.22;96062.94;5092594;28;20186;-74
2022/10/18 07:24:19;;;;;;;10.32;5.50;;;;;;;9.71;65.01;96055.38;5090684;28;20190;-74
2022/10/18 07:26:47;;;;;;;6.55;4.30;;;;;;;9.71;64.99;96058.91;5078986;28;20238;-74
2022/10/18 07:29:14;;;;;;;12.45;5.10;;;;;;;10.09;64.14;96051.72;5092991;28;20202;-74
2022/10/18 07:31:41;;;;;;;9.50;3.97;;;;;;;10.15;63.54;96061.38;5086407;28;20210;-74
2022/10/18 07:34:10;;;;;;;9.32;5.40;;;;;;;10.08;63.94;96054.72;5090027;28;20708;-74
2022/10/18 07:36:37;;;;;;;14.07;5.68;;;;;;;10.40;63.41;96045.94;5084142;28;20195;-73
2022/10/18 07:39:04;;;;;;;9.90;5.03;;;;;;;10.51;62.91;96047.44;5090488;28;20315;-74
2022/10/18 07:41:32;;;;;;;14.93;5.07;;;;;;;10.68;62.69;96032.25;5093744;28;20222;-73
2022/10/18 07:44:02;;;;;;;17.17;4.40;;;;;;;10.63;62.57;96037.78;5098718;28;20676;-73
2022/10/18 07:46:29;;;;;;;8.57;3.80;;;;;;;10.82;62.48;96031.53;5102122;28;20610;-74
2022/10/18 07:48:57;;;;;;;8.20;4.65;;;;;;;11.10;62.56;96025.09;5088788;28;20195;-74
2022/10/18 07:51:23;;;;;;;16.80;8.52;;;;;;;11.18;61.01;96029.06;5099902;28;20201;-74
2022/10/18 07:53:50;;;;;;;10.30;5.18;;;;;;;11.30;60.18;96023.97;5094438;28;20661;-73
2022/10/18 07:56:19;;;;;;;18.95;4.05;;;;;;;11.21;60.57;96023.84;5097652;28;20233;-73
2022/10/18 07:58:47;;;;;;;8.75;5.10;;;;;;;10.96;60.80;96021.53;5084479;28;20233;-74
2022/10/18 08:01:16;;;;;;;14.23;6.78;;;;;;;11.25;60.83;96014.00;5091713;28;20202;-74
2022/10/18 08:03:43;;;;;;;8.95;4.28;;;;;;;11.29;60.20;96017.75;5083077;28;20230;-74
2022/10/18 08:06:12;;;;;;;9.00;5.00;;;;;;;11.52;59.21;96009.75;5091564;28;20198;-74
2022/10/18 08:08:40;;;;;;;13.65;8.00;;;;;;;11.75;59.69;96014.22;5080491;28;20608;-74
2022/10/18 08:11:10;;;;;;;9.65;5.40;;;;;;;11.74;60.16;96012.59;5085858;28;20318;-74
2022/10/18 08:13:37;;;;;;;9.00;5.05;;;;;;;11.60;59.09;95999.00;5086526;28;20715;-74
2022/10/18 08:16:06;;;;;;;11.30;5.68;;;;;;;11.94;59.24;96003.25;5082617;28;20773;-74
2022/10/18 08:18:35;;;;;;;11.13;6.57;;;;;;;12.04;58.99;96008.50;5085246;28;20254;-74
2022/10/18 08:21:03;;;;;;;13.60;6.35;;;;;;;12.19;58.96;95999.22;5091636;28;20206;-74
2022/10/18 08:23:30;;;;;;;9.57;4.82;;;;;;;12.03;59.47;95996.81;5091608;28;20267;-74
2022/10/18 08:25:57;;;;;;;9.38;4.78;;;;;;;12.03;58.75;95991.38;5087039;28;20194;-74
2022/10/18 08:28:24;;;;;;;8.70;5.03;;;;;;;12.01;58.52;95977.34;5088865;28;20255;-74
2022/10/18 08:30:50;;;;;;;13.52;6.03;;;;;;;12.21;58.49;95980.72;5090482;28;20215;-74
2022/10/18 08:33:17;;;;;;;8.27;4.63;;;;;;;12.40;58.05;95976.75;5102637;28;20198;-74
2022/10/18 08:35:54;;;;;;;12.80;6.80;;;;;;;12.37;58.12;95973.84;5084990;28;20199;-74
2022/10/18 08:38:21;;;;;;;7.85;5.05;;;;;;;12.36;57.98;95961.34;5086157;28;20218;-74
2022/10/18 08:40:48;;;;;;;14.38;4.93;;;;;;;12.54;58.06;95963.13;5085693;28;20226;-74
2022/10/18 08:43:26;;;;;;;6.18;4.43;;;;;;;12.77;56.74;95959.31;5091015;28;20194;-74
2022/10/18 08:45:54;;;;;;;6.90;4.43;;;;;;;12.85;56.62;95962.41;5083179;28;20351;-74
2022/10/18 08:48:27;;;;;;;11.43;5.15;;;;;;;12.70;56.65;95945.34;5090719;28;20206;-74
2022/10/18 08:50:57;;;;;;;9.00;4.75;;;;;;;13.02;56.93;95946.19;5070592;28;20681;-74
2022/10/18 08:53:29;;;;;;;10.48;4.45;;;;;;;13.27;55.69;95936.59;5085275;28;20622;-74
2022/10/18 08:56:03;;;;;;;15.27;5.28;;;;;;;13.27;56.17;95937.41;5081109;28;20198;-74
2022/10/18 08:58:32;;;;;;;9.40;5.22;;;;;;;13.19;56.42;95919.13;5103964;28;20209;-74
2022/10/18 09:01:10;;;;;;;19.52;7.25;;;;;;;13.37;56.76;95931.72;5086455;28;20221;-74
2022/10/18 09:03:51;;;;;;;16.67;9.13;;;;;;;13.36;56.17;95935.56;5081026;28;20264;-74
2022/10/18 09:06:25;;;;;;;7.97;5.47;;;;;;;13.57;55.96;95924.91;5090433;28;20251;-74
2022/10/18 09:09:06;;;;;;;7.47;4.60;;;;;;;13.86;54.92;95918.91;5087546;28;20186;-73
2022/10/18 09:11:47;;;;;;;6.90;3.63;;;;;;;14.34;54.91;95915.31;5097950;28;20290;-73
2022/10/18 09:14:52;;;;;;;8.93;4.38;;;;;;;14.44;54.11;95925.94;5086119;28;20190;-73
2022/10/18 09:17:32;;;;;;;9.02;4.97;;;;;;;14.44;53.63;95917.75;5086967;28;20278;-75
2022/10/18 09:20:11;;;;;;;14.63;6.93;;;;;;;14.43;54.21;95918.88;5104254;28;20255;-74
2022/10/18 09:22:51;;;;;;;9.48;5.80;;;;;;;14.58;53.84;95908.31;5084639;28;20190;-74
2022/10/18 09:25:21;;;;;;;7.78;4.53;;;;;;;14.65;52.68;95907.81;5084942;28;20493;-74
2022/10/18 09:27:56;;;;;;;7.68;4.47;;;;;;;14.50;53.19;95897.38;5102819;28;20266;-74
2022/10/18 09:30:37;;;;;;;9.80;6.13;;;;;;;14.70;53.37;95906.84;5097800;28;20208;-74
2022/10/18 09:33:17;;;;;;;8.80;4.63;;;;;;;14.81;52.76;95898.00;5071088;28;20561;-75
2022/10/18 09:35:52;;;;;;;11.23;3.88;;;;;;;14.64;52.51;95898.00;5099661;28;20204;-75
2022/10/18 09:38:25;;;;;;;4.78;2.90;;;;;;;14.65;52.54;95887.91;5098504;28;20938;-74
2022/10/18 09:40:55;;;;;;;5.43;2.95;;;;;;;14.81;51.67;95886.28;5092331;28;20222;-75
2022/10/18 09:43:26;;;;;;;6.82;3.30;;;;;;;14.91;51.16;95892.19;5087020;28;20667;-75
2022/10/18 09:45:54;;;;;;;8.85;3.90;;;;;;;15.13;51.02;95882.22;5088937;28;20198;-74
2022/10/18 09:48:23;;;;;;;14.15;8.77;;;;;;;15.21;51.92;95884.91;5103144;28;20209;-74
2022/10/18 09:50:54;;;;;;;18.67;8.40;;;;;;;15.41;52.32;95883.41;5083760;28;20205;-75
2022/10/18 09:53:33;;;;;;;13.38;8.23;;;;;;;15.50;52.13;95875.16;5095399;28;20549;-74
2022/10/18 09:56:03;;;;;;;15.18;8.02;;;;;;;15.73;50.86;95883.91;5086223;28;20194;-75
2022/10/18 09:58:41;;;;;;;13.95;8.38;;;;;;;15.80;50.32;95881.50;5103626;28;20693;-75
2022/10/18 10:01:08;;;;;;;11.25;6.75;;;;;;;15.62;50.83;95870.63;5085494;28;20228;-75
2022/10/18 10:03:35;;;;;;;10.93;7.22;;;;;;;15.65;50.60;95858.25;5082075;28;20324;-73
2022/10/18 10:06:15;;;;;;;14.80;8.38;;;;;;;15.66;50.29;95856.34;5084029;28;20206;-75
2022/10/18 10:08:48;;;;;;;12.57;7.57;;;;;;;15.74;49.85;95847.28;5076802;28;20714;-73
2022/10/18 10:11:27;;;;;;;19.65;7.97;;;;;;;15.63;49.50;95841.41;5083721;28;20202;-74
2022/10/18 10:13:57;;;;;;;12.75;8.25;;;;;;;15.75;49.98;95837.94;5110038;28;20201;-74
2022/10/18 10:16:26;;;;;;;18.02;7.78;;;;;;;15.92;50.00;95832.38;5092374;28;20214;-74
2022/10/18 10:18:54;;;;;;;13.82;7.85;;;;;;;16.03;50.21;95833.59;5089260;28;20346;-73
2022/10/18 10:21:22;;;;;;;13.60;7.72;;;;;;;16.19;49.46;95817.38;5088230;28;20199;-74
2022/10/18 10:23:54;;;;;;;11.82;7.40;;;;;;;16.37;48.60;95820.78;5085836;28;20434;-74
2022/10/18 10:26:23;;;;;;;15.82;9.02;;;;;;;16.52;49.25;95809.22;5104729;28;20198;-74
2022/10/18 10:28:51;;;;;;;16.80;8.00;;;;;;;16.53;47.85;95811.63;5093337;28;20198;-74
2022/10/18 10:31:26;;;;;;;13.02;7.45;;;;;;;16.73;47.92;95801.81;5084112;28;20674;-74
2022/10/18 10:34:00;;;;;;;12.90;7.57;;;;;;;16.88;48.42;95792.94;5086786;28;20202;-74
2022/10/18 10:36:27;;;;;;;13.95;7.78;;;;;;;16.74;47.52;95791.66;5104659;28;20725;-74
2022/10/18 10:39:07;;;;;;;13.18;7.15;;;;;;;16.92;47.53;95799.34;5088431;28;20768;-74
2022/10/18 10:41:34;;;;;;;13.05;7.10;;;;;;;17.26;46.55;95780.91;5090967;28;20226;-74
2022/10/18 10:44:03;;;;;;;11.13;6.38;;;;;;;17.30;45.32;95776.34;5106577;28;20633;-74
2022/10/18 10:46:35;;;;;;;7.82;5.25;;;;;;;17.47;45.98;95754.19;5091227;28;20208;-73
2022/10/18 10:49:03;;;;;;;11.13;5.28;;;;;;;17.70;44.85;95754.53;5107542;28;20317;-75
2022/10/18 10:51:31;;;;;;;9.18;5.68;;;;;;;17.54;44.66;95753.59;5090808;28;20294;-74
2022/10/18 10:54:01;;;;;;;11.75;5.55;;;;;;;17.69;43.64;95745.50;5086134;28;20236;-74
2022/10/18 10:56:31;;;;;;;8.63;5.03;;;;;;;17.54;43.46;95748.13;5106992;28;20198;-74
2022/10/18 10:59:07;;;;;;;6.75;4.10;;;;;;;17.66;42.78;95740.72;5087335;28;20253;-75
2022/10/18 11:01:34;;;;;;;6.53;4.53;;;;;;;17.73;43.20;95743.69;5096015;28;20249;-74
2022/10/18 11:04:03;;;;;;;10.20;4.63;;;;;;;17.75;42.88;95724.97;5083745;28;20600;-74
2022/10/18 11:06:37;;;;;;;7.03;4.63;;;;;;;17.85;43.06;95731.91;5085889;28;20611;-74
2022/10/18 11:09:14;;;;;;;8.60;5.40;;;;;;;17.95;42.10;95727.84;5088514;28;20198;-74
2022/10/18 11:11:53;;;;;;;9.70;4.85;;;;;;;17.94;41.58;95735.28;5085934;28;20206;-74
2022/10/18 11:14:29;;;;;;;6.85;4.47;;;;;;;17.93;42.54;95721.91;5093217;28;20531;-74
2022/10/18 11:17:04;;;;;;;8.75;4.90;;;;;;;18.18;41.38;95717.16;5073509;28;20190;-74
2022/10/18 11:19:40;;;;;;;6.70;3.97;;;;;;;18.23;40.30;95703.97;5099995;28;20213;-74
2022/10/18 11:22:15;;;;;;;8.85;4.25;;;;;;;18.33;40.96;95703.47;5096349;28;20185;-73
2022/10/18 11:24:42;;;;;;;9.50;4.50;;;;;;;18.47;40.34;95692.09;5108099;28;20201;-74
2022/10/18 11:27:19;;;;;;;8.48;4.28;;;;;;;18.47;40.06;95687.41;5092287;28;20230;-74
2022/10/18 11:30:02;;;;;;;5.50;3.90;;;;;;;18.61;39.18;95688.94;5080791;28;20194;-74
2022/10/18 11:32:38;;;;;;;5.60;3.40;;;;;;;18.25;39.48;95678.94;5083305;28;20255;-73
2022/10/18 11:35:22;;;;;;;5.47;3.80;;;;;;;18.44;39.74;95687.31;5079842;28;20782;-74
2022/10/18 11:38:06;;;;;;;10.32;3.72;;;;;;;18.82;39.46;95675.78;5081501;28;20174;-75
2022/10/18 11:40:48;;;;;;;6.38;2.60;;;;;;;19.02;34.18;95669.19;5083982;28;20746;-73
2022/10/18 11:43:23;;;;;;;3.10;2.00;;;;;;;19.03;32.58;95659.81;5080933;28;20323;-75
2022/10/18 11:45:58;;;;;;;5.40;2.58;;;;;;;19.23;34.04;95657.13;5075071;28;20282;-75